Time,TemperatureF,DewpointF,PressureIn,WindDirection,WindDirectionDegrees,WindSpeedMPH,WindSpeedGustMPH,Humidity,HourlyPrecipIn,Conditions,Clouds,dailyrainin,SoftwareType,DateUTC
2013-05-02 00:00:00,48.7,40.8,30.39,SW,232,0.0,0.0,74,0.00,,CLR,0.00,VWS V12.08,2013-05-02 04:00:00,
2013-05-02 00:01:00,48.7,40.8,30.39,SW,233,0.0,0.0,74,0.00,,CLR,0.00,VWS V12.08,2013-05-02 04:01:00,
2013-05-02 00:06:00,48.2,40.3,30.39,SW,233,0.0,0.0,74,0.00,,CLR,0.00,VWS V12.08,2013-05-02 04:06:00,
2013-05-02 00:11:00,47.8,39.9,30.39,SW,232,0.0,0.0,74,0.00,,CLR,0.00,VWS V12.08,2013-05-02 04:11:00,
2013-05-02 00:16:00,47.5,39.6,30.39,SW,232,0.0,0.0,74,0.00,,CLR,0.00,VWS V12.08,2013-05-02 04:16:00,
2013-05-02 00:21:00,47.2,39.3,30.39,SW,232,0.0,0.0,74,0.00,,CLR,0.00,VWS V12.08,2013-05-02 04:21:00,
2013-05-02 00:26:00,46.9,39.4,30.39,SW,232,0.0,0.0,75,0.00,,CLR,0.00,VWS V12.08,2013-05-02 04:26:00,
2013-05-02 00:31:00,46.6,39.5,30.39,SW,232,0.0,0.0,76,0.00,,CLR,0.00,VWS V12.08,2013-05-02 04:31:00,
2013-05-02 00:36:00,46.3,39.2,30.39,SW,233,0.0,0.0,76,0.00,,CLR,0.00,VWS V12.08,2013-05-02 04:36:00,
2013-05-02 00:41:00,46.0,39.2,30.39,SW,233,0.0,0.0,77,0.00,,CLR,0.00,VWS V12.08,2013-05-02 04:41:00,
2013-05-02 00:46:00,45.7,38.6,30.39,SW,233,0.0,0.0,76,0.00,,CLR,0.00,VWS V12.08,2013-05-02 04:46:00,
2013-05-02 00:51:00,45.6,38.8,30.39,SW,232,0.0,0.0,77,0.00,,CLR,0.00,VWS V12.08,2013-05-02 04:51:00,
2013-05-02 00:56:00,45.3,38.9,30.39,SW,233,0.0,0.0,78,0.00,,CLR,0.00,VWS V12.08,2013-05-02 04:56:00,
2013-05-02 01:01:00,45.1,39.0,30.39,SW,232,0.0,0.0,79,0.00,,CLR,0.00,VWS V12.08,2013-05-02 05:01:00,
2013-05-02 01:07:00,44.8,38.0,30.39,SW,233,0.0,0.0,77,0.00,,CLR,0.00,VWS V12.08,2013-05-02 05:07:00,
2013-05-02 01:12:00,44.7,37.9,30.39,SW,232,0.0,0.0,77,0.00,,CLR,0.00,VWS V12.08,2013-05-02 05:12:00,
2013-05-02 01:17:00,44.4,38.0,30.39,SW,232,0.0,0.0,78,0.00,,CLR,0.00,VWS V12.08,2013-05-02 05:17:00,
2013-05-02 01:22:00,44.2,38.1,30.39,SW,232,0.0,0.0,79,0.00,,CLR,0.00,VWS V12.08,2013-05-02 05:22:00,
2013-05-02 01:27:00,44.2,38.4,30.39,SW,233,0.0,0.0,80,0.00,,CLR,0.00,VWS V12.08,2013-05-02 05:27:00,
2013-05-02 01:32:00,44.1,38.7,30.39,SW,232,0.0,0.0,81,0.00,,CLR,0.00,VWS V12.08,2013-05-02 05:32:00,
2013-05-02 01:37:00,44.1,38.7,30.39,SW,233,0.0,0.0,81,0.00,,CLR,0.00,VWS V12.08,2013-05-02 05:37:00,
2013-05-02 01:42:00,44.0,38.2,30.39,SW,232,0.0,0.0,80,0.00,,CLR,0.00,VWS V12.08,2013-05-02 05:42:00,
2013-05-02 01:47:00,43.8,38.0,30.39,SW,232,0.0,0.0,80,0.00,,CLR,0.00,VWS V12.08,2013-05-02 05:47:00,
2013-05-02 01:52:00,43.7,38.3,30.39,SW,232,0.0,0.0,81,0.00,,CLR,0.00,VWS V12.08,2013-05-02 05:52:00,
2013-05-02 01:57:00,43.5,38.4,30.39,SW,232,0.0,2.0,82,0.00,,CLR,0.00,VWS V12.08,2013-05-02 05:57:00,
2013-05-02 02:02:00,43.5,38.4,30.39,SW,232,0.0,0.0,82,0.00,,CLR,0.00,VWS V12.08,2013-05-02 06:02:00,
2013-05-02 02:07:00,43.4,38.3,30.39,SW,233,0.0,0.0,82,0.00,,CLR,0.00,VWS V12.08,2013-05-02 06:07:00,
2013-05-02 02:12:00,43.2,38.1,30.39,SW,232,1.0,2.0,82,0.00,,CLR,0.00,VWS V12.08,2013-05-02 06:12:00,
2013-05-02 02:17:00,43.1,38.3,30.39,SW,232,0.0,0.0,83,0.00,,CLR,0.00,VWS V12.08,2013-05-02 06:17:00,
2013-05-02 02:22:00,42.9,38.1,30.39,SW,232,0.0,0.0,83,0.00,,CLR,0.00,VWS V12.08,2013-05-02 06:22:00,
2013-05-02 02:27:00,42.6,38.1,30.39,SW,232,0.0,0.0,84,0.00,,CLR,0.00,VWS V12.08,2013-05-02 06:27:00,
2013-05-02 02:32:00,42.5,38.0,30.39,SW,232,0.0,0.0,84,0.00,,CLR,0.00,VWS V12.08,2013-05-02 06:32:00,
2013-05-02 02:37:00,42.2,37.4,30.39,SW,232,0.0,0.0,83,0.00,,CLR,0.00,VWS V12.08,2013-05-02 06:37:00,
2013-05-02 02:42:00,42.1,37.3,30.39,SW,232,0.0,0.0,83,0.00,,CLR,0.00,VWS V12.08,2013-05-02 06:42:00,
2013-05-02 02:47:00,41.9,37.1,30.39,SW,232,0.0,0.0,83,0.00,,CLR,0.00,VWS V12.08,2013-05-02 06:47:00,
2013-05-02 02:52:00,41.8,37.3,30.39,SW,232,0.0,0.0,84,0.00,,CLR,0.00,VWS V12.08,2013-05-02 06:52:00,
2013-05-02 02:57:00,41.6,37.4,30.39,SW,232,0.0,0.0,85,0.00,,CLR,0.00,VWS V12.08,2013-05-02 06:57:00,
2013-05-02 03:02:00,41.5,37.3,30.39,SW,232,0.0,0.0,85,0.00,,CLR,0.00,VWS V12.08,2013-05-02 07:02:00,
2013-05-02 03:07:00,41.3,37.1,30.39,SW,232,0.0,0.0,85,0.00,,CLR,0.00,VWS V12.08,2013-05-02 07:07:00,
2013-05-02 03:12:00,41.2,37.3,30.39,SW,232,0.0,0.0,86,0.00,,CLR,0.00,VWS V12.08,2013-05-02 07:12:00,
2013-05-02 03:17:00,41.1,37.2,30.39,SW,232,0.0,0.0,86,0.00,,CLR,0.00,VWS V12.08,2013-05-02 07:17:00,
2013-05-02 03:22:00,40.9,37.0,30.39,SW,232,0.0,0.0,86,0.00,,CLR,0.00,VWS V12.08,2013-05-02 07:22:00,
2013-05-02 03:27:00,40.8,36.9,30.39,SW,232,0.0,0.0,86,0.00,,CLR,0.00,VWS V12.08,2013-05-02 07:27:00,
2013-05-02 03:32:00,40.8,36.9,30.39,SW,232,0.0,0.0,86,0.00,,CLR,0.00,VWS V12.08,2013-05-02 07:32:00,
2013-05-02 03:37:00,40.6,36.8,30.39,SW,233,0.0,0.0,86,0.00,,CLR,0.00,VWS V12.08,2013-05-02 07:37:00,
2013-05-02 03:42:00,40.5,36.9,30.39,SW,232,0.0,0.0,87,0.00,,CLR,0.00,VWS V12.08,2013-05-02 07:42:00,
2013-05-02 03:47:00,40.5,36.9,30.39,SW,232,0.0,0.0,87,0.00,,CLR,0.00,VWS V12.08,2013-05-02 07:47:00,
2013-05-02 03:52:00,40.3,36.8,30.39,SW,229,1.0,2.0,87,0.00,,CLR,0.00,VWS V12.08,2013-05-02 07:52:00,
2013-05-02 03:57:00,40.2,36.9,30.39,SW,227,0.0,0.0,88,0.00,,CLR,0.00,VWS V12.08,2013-05-02 07:57:00,
2013-05-02 04:02:00,40.1,36.8,30.39,SW,229,2.0,2.0,88,0.00,,CLR,0.00,VWS V12.08,2013-05-02 08:02:00,
2013-05-02 04:07:00,39.9,36.6,30.39,SW,229,0.0,0.0,88,0.00,,CLR,0.00,VWS V12.08,2013-05-02 08:07:00,
2013-05-02 04:12:00,39.8,36.5,30.39,SW,229,0.0,0.0,88,0.00,,CLR,0.00,VWS V12.08,2013-05-02 08:12:00,
2013-05-02 04:17:00,39.6,36.3,30.39,SW,227,0.0,0.0,88,0.00,,CLR,0.00,VWS V12.08,2013-05-02 08:17:00,
2013-05-02 04:22:00,39.6,36.3,30.39,SW,229,0.0,0.0,88,0.00,,CLR,0.00,VWS V12.08,2013-05-02 08:22:00,
2013-05-02 04:27:00,39.5,36.5,30.39,SW,229,0.0,0.0,89,0.00,,CLR,0.00,VWS V12.08,2013-05-02 08:27:00,
2013-05-02 04:32:00,39.3,36.3,30.39,SW,227,0.0,0.0,89,0.00,,CLR,0.00,VWS V12.08,2013-05-02 08:32:00,
2013-05-02 04:37:00,39.2,36.2,30.39,SW,229,0.0,0.0,89,0.00,,CLR,0.00,VWS V12.08,2013-05-02 08:37:00,
2013-05-02 04:42:00,39.2,36.2,30.39,SW,229,0.0,0.0,89,0.00,,CLR,0.00,VWS V12.08,2013-05-02 08:42:00,
2013-05-02 04:47:00,39.1,36.4,30.39,SW,227,0.0,0.0,90,0.00,,CLR,0.00,VWS V12.08,2013-05-02 08:47:00,
2013-05-02 04:52:00,38.9,36.2,30.39,SW,227,0.0,0.0,90,0.00,,CLR,0.00,VWS V12.08,2013-05-02 08:52:00,
2013-05-02 04:57:00,38.8,36.1,30.39,SW,227,0.0,0.0,90,0.00,,CLR,0.00,VWS V12.08,2013-05-02 08:57:00,
2013-05-02 05:02:00,38.6,35.9,30.39,SW,227,0.0,0.0,90,0.00,,CLR,0.00,VWS V12.08,2013-05-02 09:02:00,
2013-05-02 05:07:00,38.6,35.9,30.39,SW,229,0.0,0.0,90,0.00,,CLR,0.00,VWS V12.08,2013-05-02 09:07:00,
2013-05-02 05:12:00,38.5,36.1,30.39,SW,227,0.0,0.0,91,0.00,,CLR,0.00,VWS V12.08,2013-05-02 09:12:00,
2013-05-02 05:17:00,38.3,35.9,30.40,SW,229,0.0,0.0,91,0.00,,CLR,0.00,VWS V12.08,2013-05-02 09:17:00,
2013-05-02 05:22:00,38.3,35.9,30.40,SW,229,0.0,0.0,91,0.00,,CLR,0.00,VWS V12.08,2013-05-02 09:22:00,
2013-05-02 05:27:00,38.2,35.8,30.40,SW,227,0.0,0.0,91,0.00,,CLR,0.00,VWS V12.08,2013-05-02 09:27:00,
2013-05-02 05:32:00,38.1,36.0,30.40,SW,227,0.0,0.0,92,0.00,,CLR,0.00,VWS V12.08,2013-05-02 09:32:00,
2013-05-02 05:37:00,37.9,35.8,30.40,SW,229,0.0,0.0,92,0.00,,CLR,0.00,VWS V12.08,2013-05-02 09:37:00,
2013-05-02 05:42:00,37.9,36.1,30.41,SW,229,0.0,0.0,93,0.00,,CLR,0.00,VWS V12.08,2013-05-02 09:42:00,
2013-05-02 05:47:00,37.8,36.0,30.41,SW,229,0.0,0.0,93,0.00,,CLR,0.00,VWS V12.08,2013-05-02 09:47:00,
2013-05-02 05:52:00,37.8,36.0,30.41,SW,227,0.0,0.0,93,0.00,,CLR,0.00,VWS V12.08,2013-05-02 09:52:00,
2013-05-02 05:57:00,37.8,36.0,30.41,SW,229,0.0,1.0,93,0.00,,CLR,0.00,VWS V12.08,2013-05-02 09:57:00,
2013-05-02 06:02:00,37.8,36.2,30.41,SW,227,0.0,0.0,94,0.00,,CLR,0.00,VWS V12.08,2013-05-02 10:02:00,
2013-05-02 06:07:00,37.9,36.3,30.41,SW,229,0.0,2.0,94,0.00,,CLR,0.00,VWS V12.08,2013-05-02 10:07:00,
2013-05-02 06:12:00,38.2,36.6,30.41,SW,229,1.0,2.0,94,0.00,,CLR,0.00,VWS V12.08,2013-05-02 10:12:00,
2013-05-02 06:17:00,38.5,36.9,30.41,SW,227,0.0,2.0,94,0.00,,CLR,0.00,VWS V12.08,2013-05-02 10:17:00,
2013-05-02 06:22:00,38.9,37.0,30.41,SW,227,2.0,3.0,93,0.00,,CLR,0.00,VWS V12.08,2013-05-02 10:22:00,
2013-05-02 06:27:00,39.2,37.1,30.41,SW,227,0.0,2.0,92,0.00,,CLR,0.00,VWS V12.08,2013-05-02 10:27:00,
2013-05-02 06:32:00,39.8,37.4,30.41,SW,227,0.0,1.0,91,0.00,,CLR,0.00,VWS V12.08,2013-05-02 10:32:00,
2013-05-02 06:37:00,40.2,37.5,30.41,SW,227,1.0,1.0,90,0.00,,CLR,0.00,VWS V12.08,2013-05-02 10:37:00,
2013-05-02 06:42:00,40.9,37.9,30.42,SW,227,0.0,0.0,89,0.00,,CLR,0.00,VWS V12.08,2013-05-02 10:42:00,
2013-05-02 06:47:00,41.6,38.0,30.42,SW,227,0.0,2.0,87,0.00,,CLR,0.00,VWS V12.08,2013-05-02 10:47:00,
2013-05-02 06:52:00,42.2,38.0,30.42,East,79,2.0,2.0,85,0.00,,CLR,0.00,VWS V12.08,2013-05-02 10:52:00,
2013-05-02 06:58:00,42.5,37.7,30.42,ENE,75,0.0,2.0,83,0.00,,CLR,0.00,VWS V12.08,2013-05-02 10:58:00,
2013-05-02 07:03:00,42.8,37.7,30.42,ENE,75,0.0,0.0,82,0.00,,CLR,0.00,VWS V12.08,2013-05-02 11:03:00,
2013-05-02 07:08:00,42.6,37.2,30.42,ENE,75,0.0,0.0,81,0.00,,CLR,0.00,VWS V12.08,2013-05-02 11:08:00,
2013-05-02 07:13:00,42.2,37.1,30.43,ENE,76,2.0,2.0,82,0.00,,CLR,0.00,VWS V12.08,2013-05-02 11:13:00,
2013-05-02 07:18:00,42.3,37.2,30.43,ENE,69,0.0,2.0,82,0.00,,CLR,0.00,VWS V12.08,2013-05-02 11:18:00,
2013-05-02 07:23:00,42.5,37.1,30.43,ENE,69,0.0,2.0,81,0.00,,CLR,0.00,VWS V12.08,2013-05-02 11:23:00,
2013-05-02 07:28:00,42.5,37.1,30.43,ENE,71,0.0,0.0,81,0.00,,CLR,0.00,VWS V12.08,2013-05-02 11:28:00,
2013-05-02 07:33:00,42.5,37.4,30.43,ENE,69,0.0,0.0,82,0.00,,CLR,0.00,VWS V12.08,2013-05-02 11:33:00,
2013-05-02 07:38:00,43.2,38.1,30.43,ENE,69,0.0,0.0,82,0.00,,CLR,0.00,VWS V12.08,2013-05-02 11:38:00,
2013-05-02 07:43:00,44.4,38.6,30.44,ENE,71,0.0,0.0,80,0.00,,CLR,0.00,VWS V12.08,2013-05-02 11:43:00,
2013-05-02 07:48:00,45.0,37.9,30.44,ENE,71,0.0,0.0,76,0.00,,CLR,0.00,VWS V12.08,2013-05-02 11:48:00,
2013-05-02 07:53:00,46.2,38.0,30.44,ENE,71,2.0,2.0,73,0.00,,CLR,0.00,VWS V12.08,2013-05-02 11:53:00,
2013-05-02 07:58:00,47.2,37.9,30.43,ENE,71,2.0,3.0,70,0.00,,CLR,0.00,VWS V12.08,2013-05-02 11:58:00,
2013-05-02 08:03:00,48.2,38.2,30.43,ENE,71,0.0,3.0,68,0.00,,CLR,0.00,VWS V12.08,2013-05-02 12:03:00,
2013-05-02 08:08:00,49.0,38.2,30.43,ENE,71,1.0,2.0,66,0.00,,CLR,0.00,VWS V12.08,2013-05-02 12:08:00,
2013-05-02 08:13:00,49.6,38.7,30.43,ENE,71,0.0,2.0,66,0.00,,CLR,0.00,VWS V12.08,2013-05-02 12:13:00,
2013-05-02 08:18:00,49.6,38.7,30.43,ENE,71,0.0,0.0,66,0.00,,CLR,0.00,VWS V12.08,2013-05-02 12:18:00,
2013-05-02 08:23:00,49.9,38.6,30.43,ENE,71,0.0,0.0,65,0.00,,CLR,0.00,VWS V12.08,2013-05-02 12:23:00,
2013-05-02 08:28:00,51.2,38.6,30.43,ENE,71,1.0,2.0,62,0.00,,CLR,0.00,VWS V12.08,2013-05-02 12:28:00,
2013-05-02 08:33:00,52.5,38.2,30.43,ENE,71,1.0,2.0,58,0.00,,CLR,0.00,VWS V12.08,2013-05-02 12:33:00,
2013-05-02 08:38:00,53.1,38.7,30.43,ENE,71,0.0,1.0,58,0.00,,CLR,0.00,VWS V12.08,2013-05-02 12:38:00,
2013-05-02 08:43:00,53.7,38.8,30.42,ENE,71,0.0,0.0,57,0.00,,CLR,0.00,VWS V12.08,2013-05-02 12:43:00,
2013-05-02 08:48:00,54.5,38.2,30.42,ENE,71,0.0,0.0,54,0.00,,CLR,0.00,VWS V12.08,2013-05-02 12:48:00,
2013-05-02 08:53:00,54.7,36.9,30.42,ENE,71,0.0,0.0,51,0.00,,CLR,0.00,VWS V12.08,2013-05-02 12:53:00,
2013-05-02 08:58:00,55.8,38.0,30.41,ENE,71,0.0,0.0,51,0.00,,CLR,0.00,VWS V12.08,2013-05-02 12:58:00,
2013-05-02 09:03:00,56.9,38.0,30.41,ENE,71,0.0,0.0,49,0.00,,CLR,0.00,VWS V12.08,2013-05-02 13:03:00,
2013-05-02 09:08:00,57.8,38.8,30.41,ENE,71,0.0,0.0,49,0.00,,CLR,0.00,VWS V12.08,2013-05-02 13:08:00,
2013-05-02 09:13:00,58.7,38.5,30.41,SW,216,0.0,3.0,47,0.00,,CLR,0.00,VWS V12.08,2013-05-02 13:13:00,
2013-05-02 09:18:00,59.2,39.0,30.41,SW,227,2.0,3.0,47,0.00,,CLR,0.00,VWS V12.08,2013-05-02 13:18:00,
2013-05-02 09:23:00,59.3,39.1,30.41,SSW,202,1.0,3.0,47,0.00,,SCT100,0.00,VWS V12.08,2013-05-02 13:23:00,
2013-05-02 09:28:00,60.1,39.3,30.40,SW,220,3.0,3.0,46,0.00,,SCT100,0.00,VWS V12.08,2013-05-02 13:28:00,
2013-05-02 09:33:00,60.9,38.9,30.40,SW,227,0.0,2.0,44,0.00,,SCT100,0.00,VWS V12.08,2013-05-02 13:33:00,
2013-05-02 09:38:00,61.9,39.8,30.40,SW,227,2.0,3.0,44,0.00,,SCT100,0.00,VWS V12.08,2013-05-02 13:38:00,
2013-05-02 09:43:00,62.3,40.1,30.39,SW,227,2.0,2.0,44,0.00,,CLR,0.00,VWS V12.08,2013-05-02 13:43:00,
2013-05-02 09:48:00,62.7,37.4,30.39,SW,223,0.0,2.0,39,0.00,,CLR,0.00,VWS V12.08,2013-05-02 13:48:00,
2013-05-02 09:53:00,63.5,36.8,30.39,East,96,0.0,0.0,37,0.00,,CLR,0.00,VWS V12.08,2013-05-02 13:53:00,
2013-05-02 09:58:00,64.4,36.2,30.39,East,89,0.0,2.0,35,0.00,,CLR,0.00,VWS V12.08,2013-05-02 13:58:00,
2013-05-02 10:03:00,65.6,38.0,30.39,ESE,121,0.0,0.0,36,0.00,,CLR,0.00,VWS V12.08,2013-05-02 14:03:00,
2013-05-02 10:08:00,65.8,38.8,30.39,ESE,121,0.0,0.0,37,0.00,,CLR,0.00,VWS V12.08,2013-05-02 14:08:00,
2013-05-02 10:13:00,65.6,37.2,30.39,ESE,120,1.0,1.0,35,0.00,,CLR,0.00,VWS V12.08,2013-05-02 14:13:00,
2013-05-02 10:18:00,66.3,37.8,30.39,ESE,109,0.0,0.0,35,0.00,,CLR,0.00,VWS V12.08,2013-05-02 14:18:00,
2013-05-02 10:23:00,66.4,37.2,30.39,ESE,112,0.0,1.0,34,0.00,,CLR,0.00,VWS V12.08,2013-05-02 14:23:00,
2013-05-02 10:28:00,66.8,36.8,30.39,East,96,1.0,1.0,33,0.00,,CLR,0.00,VWS V12.08,2013-05-02 14:28:00,
2013-05-02 10:33:00,67.1,37.8,30.39,East,96,0.0,1.0,34,0.00,,CLR,0.00,VWS V12.08,2013-05-02 14:33:00,
2013-05-02 10:38:00,67.4,37.3,30.39,East,96,0.0,0.0,33,0.00,,CLR,0.00,VWS V12.08,2013-05-02 14:38:00,
2013-05-02 10:43:00,67.9,37.8,30.38,East,90,1.0,2.0,33,0.00,,CLR,0.00,VWS V12.08,2013-05-02 14:43:00,
2013-05-02 10:48:00,68.8,36.1,30.38,ENE,76,2.0,2.0,30,0.00,,CLR,0.00,VWS V12.08,2013-05-02 14:48:00,
2013-05-02 10:54:00,68.1,36.3,30.38,ENE,78,2.0,2.0,31,0.00,,CLR,0.00,VWS V12.08,2013-05-02 14:54:00,
2013-05-02 10:59:00,68.8,35.3,30.37,East,79,0.0,3.0,29,0.00,,CLR,0.00,VWS V12.08,2013-05-02 14:59:00,
2013-05-02 11:04:00,69.5,35.0,30.37,East,99,1.0,3.0,28,0.00,,CLR,0.00,VWS V12.08,2013-05-02 15:04:00,
2013-05-02 11:09:00,69.8,34.3,30.37,ESE,103,1.0,2.0,27,0.00,,CLR,0.00,VWS V12.08,2013-05-02 15:09:00,
2013-05-02 11:14:00,70.7,35.1,30.37,ESE,121,1.0,5.0,27,0.00,,CLR,0.00,VWS V12.08,2013-05-02 15:14:00,
2013-05-02 11:19:00,71.2,37.3,30.37,East,100,4.0,4.0,29,0.00,,CLR,0.00,VWS V12.08,2013-05-02 15:19:00,
2013-05-02 11:24:00,71.7,36.9,30.37,SE,127,5.0,6.0,28,0.00,,CLR,0.00,VWS V12.08,2013-05-02 15:24:00,
2013-05-02 11:29:00,72.4,37.5,30.36,ENE,59,1.0,4.0,28,0.00,,CLR,0.00,VWS V12.08,2013-05-02 15:29:00,
2013-05-02 11:34:00,73.1,37.2,30.36,ENE,62,0.0,2.0,27,0.00,,CLR,0.00,VWS V12.08,2013-05-02 15:34:00,
2013-05-02 11:39:00,73.3,37.3,30.36,ESE,117,2.0,3.0,27,0.00,,CLR,0.00,VWS V12.08,2013-05-02 15:39:00,
2013-05-02 11:44:00,74.0,37.9,30.35,ENE,72,2.0,5.0,27,0.00,,CLR,0.00,VWS V12.08,2013-05-02 15:44:00,
2013-05-02 11:49:00,73.8,37.8,30.35,ENE,72,1.0,1.0,27,0.00,,CLR,0.00,VWS V12.08,2013-05-02 15:49:00,
2013-05-02 11:54:00,73.8,37.8,30.35,East,97,1.0,3.0,27,0.00,,CLR,0.00,VWS V12.08,2013-05-02 15:54:00,
2013-05-02 11:59:00,74.1,38.0,30.34,ENE,75,0.0,1.0,27,0.00,,CLR,0.00,VWS V12.08,2013-05-02 15:59:00,
2013-05-02 12:04:00,74.7,37.6,30.34,SSW,210,2.0,3.0,26,0.00,,SCT110,0.00,VWS V12.08,2013-05-02 16:04:00,
2013-05-02 12:09:00,75.0,35.8,30.34,ESE,107,1.0,3.0,24,0.00,,SCT110,0.00,VWS V12.08,2013-05-02 16:09:00,
2013-05-02 12:14:00,74.8,36.7,30.33,ESE,116,0.0,0.0,25,0.00,,SCT110,0.00,VWS V12.08,2013-05-02 16:14:00,
2013-05-02 12:19:00,75.7,39.4,30.33,NE,56,1.0,7.0,27,0.00,,SCT110,0.00,VWS V12.08,2013-05-02 16:19:00,
2013-05-02 12:24:00,76.8,37.3,30.33,NNW,330,0.0,4.0,24,0.00,,SCT110,0.00,VWS V12.08,2013-05-02 16:24:00,
2013-05-02 12:29:00,77.8,38.2,30.33,ENE,78,1.0,8.0,24,0.00,,SCT110,0.00,VWS V12.08,2013-05-02 16:29:00,
2013-05-02 12:34:00,78.1,38.4,30.33,ENE,69,4.0,7.0,24,0.00,,SCT110,0.00,VWS V12.08,2013-05-02 16:34:00,
2013-05-02 12:39:00,78.5,38.7,30.33,SSW,195,1.0,2.0,24,0.00,,SCT110,0.00,VWS V12.08,2013-05-02 16:39:00,
2013-05-02 12:44:00,77.8,36.0,30.32,SE,127,4.0,6.0,22,0.00,,SCT110,0.00,VWS V12.08,2013-05-02 16:44:00,
2013-05-02 12:49:00,77.9,39.3,30.32,ENE,73,0.0,2.0,25,0.00,,SCT110,0.00,VWS V12.08,2013-05-02 16:49:00,
2013-05-02 12:54:00,78.1,37.3,30.32,SE,127,2.0,4.0,23,0.00,,SCT110,0.00,VWS V12.08,2013-05-02 16:54:00,
2013-05-02 12:59:00,77.6,38.0,30.31,East,88,2.0,3.0,24,0.00,,SCT110,0.00,VWS V12.08,2013-05-02 16:59:00,
2013-05-02 13:04:00,78.1,39.5,30.31,North,356,0.0,1.0,25,0.00,,OVC110,0.00,VWS V12.08,2013-05-02 17:04:00,
2013-05-02 13:09:00,79.2,38.2,30.31,North,352,1.0,1.0,23,0.00,,OVC110,0.00,VWS V12.08,2013-05-02 17:09:00,
2013-05-02 13:14:00,80.2,39.1,30.30,NNE,27,4.0,8.0,23,0.00,,OVC110,0.00,VWS V12.08,2013-05-02 17:14:00,
2013-05-02 13:19:00,79.8,37.6,30.30,ENE,69,7.0,8.0,22,0.00,,OVC110,0.00,VWS V12.08,2013-05-02 17:19:00,
2013-05-02 13:24:00,79.6,37.5,30.30,East,89,0.0,2.0,22,0.00,,OVC110,0.00,VWS V12.08,2013-05-02 17:24:00,
2013-05-02 13:29:00,78.9,36.9,30.30,SW,229,6.0,6.0,22,0.00,,OVC110,0.00,VWS V12.08,2013-05-02 17:29:00,
2013-05-02 13:34:00,78.3,37.5,30.30,ENE,75,0.0,3.0,23,0.00,,OVC110,0.00,VWS V12.08,2013-05-02 17:34:00,
2013-05-02 13:39:00,78.9,36.9,30.30,ESE,113,3.0,6.0,22,0.00,,OVC110,0.00,VWS V12.08,2013-05-02 17:39:00,
2013-05-02 13:44:00,78.9,36.9,30.29,WSW,253,0.0,0.0,22,0.00,,OVC110,0.00,VWS V12.08,2013-05-02 17:44:00,
2013-05-02 13:50:00,78.9,39.1,30.29,WSW,254,0.0,1.0,24,0.00,,OVC110,0.00,VWS V12.08,2013-05-02 17:50:00,
2013-05-02 13:55:00,78.5,37.7,30.29,ENE,78,7.0,8.0,23,0.00,,OVC110,0.00,VWS V12.08,2013-05-02 17:55:00,
2013-05-02 14:00:00,77.6,36.9,30.29,SE,124,2.0,6.0,23,0.00,,OVC110,0.00,VWS V12.08,2013-05-02 18:00:00,
2013-05-02 14:05:00,77.2,38.7,30.29,ENE,78,2.0,7.0,25,0.00,,FEW120,0.00,VWS V12.08,2013-05-02 18:05:00,
2013-05-02 14:10:00,77.2,38.7,30.29,ENE,75,3.0,6.0,25,0.00,,FEW120,0.00,VWS V12.08,2013-05-02 18:10:00,
2013-05-02 14:15:00,77.0,38.5,30.29,ENE,66,4.0,6.0,25,0.00,,FEW120,0.00,VWS V12.08,2013-05-02 18:15:00,
2013-05-02 14:20:00,77.0,38.5,30.29,ENE,61,5.0,6.0,25,0.00,,FEW120,0.00,VWS V12.08,2013-05-02 18:20:00,
2013-05-02 14:25:00,77.2,38.7,30.29,ENE,76,3.0,5.0,25,0.00,,FEW120,0.00,VWS V12.08,2013-05-02 18:25:00,
2013-05-02 14:30:00,77.2,38.7,30.28,East,83,5.0,8.0,25,0.00,,FEW120,0.00,VWS V12.08,2013-05-02 18:30:00,
2013-05-02 14:35:00,77.0,38.5,30.28,ENE,72,3.0,5.0,25,0.00,,FEW120,0.00,VWS V12.08,2013-05-02 18:35:00,
2013-05-02 14:40:00,76.6,38.2,30.28,ENE,76,3.0,3.0,25,0.00,,FEW120,0.00,VWS V12.08,2013-05-02 18:40:00,
2013-05-02 14:45:00,76.5,38.1,30.28,East,97,1.0,5.0,25,0.00,,FEW120,0.00,VWS V12.08,2013-05-02 18:45:00,
2013-05-02 14:50:00,76.1,39.7,30.28,ENE,75,3.0,4.0,27,0.00,,FEW120,0.00,VWS V12.08,2013-05-02 18:50:00,
2013-05-02 14:55:00,76.1,39.7,30.28,East,82,0.0,3.0,27,0.00,,FEW120,0.00,VWS V12.08,2013-05-02 18:55:00,
2013-05-02 15:00:00,76.1,39.7,30.28,ENE,73,3.0,5.0,27,0.00,,FEW120,0.00,VWS V12.08,2013-05-02 19:00:00,
2013-05-02 15:05:00,76.1,39.7,30.28,East,82,1.0,3.0,27,0.00,,OVC100,0.00,VWS V12.08,2013-05-02 19:05:00,
2013-05-02 15:10:00,76.1,39.7,30.28,East,82,2.0,2.0,27,0.00,,OVC100,0.00,VWS V12.08,2013-05-02 19:10:00,
2013-05-02 15:15:00,76.1,38.8,30.28,ENE,78,5.0,5.0,26,0.00,,OVC100,0.00,VWS V12.08,2013-05-02 19:15:00,
2013-05-02 15:20:00,76.1,38.8,30.28,East,79,5.0,6.0,26,0.00,,OVC100,0.00,VWS V12.08,2013-05-02 19:20:00,
2013-05-02 15:25:00,76.1,39.7,30.28,East,85,2.0,5.0,27,0.00,,OVC100,0.00,VWS V12.08,2013-05-02 19:25:00,
2013-05-02 15:30:00,76.1,39.7,30.27,ENE,61,3.0,4.0,27,0.00,,OVC100,0.00,VWS V12.08,2013-05-02 19:30:00,
2013-05-02 15:35:00,76.3,38.9,30.27,ENE,69,3.0,3.0,26,0.00,,OVC100,0.00,VWS V12.08,2013-05-02 19:35:00,
2013-05-02 15:40:00,76.5,39.1,30.27,ENE,69,1.0,2.0,26,0.00,,OVC100,0.00,VWS V12.08,2013-05-02 19:40:00,
2013-05-02 15:45:00,76.3,40.8,30.27,East,86,0.0,3.0,28,0.00,,OVC100,0.00,VWS V12.08,2013-05-02 19:45:00,
2013-05-02 15:50:00,76.3,39.9,30.27,East,79,4.0,4.0,27,0.00,,OVC100,0.00,VWS V12.08,2013-05-02 19:50:00,
2013-05-02 15:55:00,76.1,39.7,30.27,ENE,72,4.0,5.0,27,0.00,,OVC100,0.00,VWS V12.08,2013-05-02 19:55:00,
2013-05-02 16:00:00,75.9,39.6,30.27,East,79,7.0,8.0,27,0.00,,OVC100,0.00,VWS V12.08,2013-05-02 20:00:00,
2013-05-02 16:05:00,75.6,39.3,30.27,East,86,2.0,3.0,27,0.00,,OVC100,0.00,VWS V12.08,2013-05-02 20:05:00,
2013-05-02 16:10:00,75.4,40.1,30.27,NNE,32,3.0,8.0,28,0.00,,OVC100,0.00,VWS V12.08,2013-05-02 20:10:00,
2013-05-02 16:15:00,75.2,39.9,30.27,NNE,31,1.0,6.0,28,0.00,,OVC100,0.00,VWS V12.08,2013-05-02 20:15:00,
2013-05-02 16:20:00,75.0,39.7,30.27,ENE,65,7.0,8.0,28,0.00,,OVC100,0.00,VWS V12.08,2013-05-02 20:20:00,
2013-05-02 16:25:00,74.7,39.5,30.27,ENE,69,2.0,9.0,28,0.00,,OVC100,0.00,VWS V12.08,2013-05-02 20:25:00,
2013-05-02 16:30:00,74.5,41.1,30.27,ENE,64,2.0,6.0,30,0.00,,OVC100,0.00,VWS V12.08,2013-05-02 20:30:00,
2013-05-02 16:35:00,74.5,39.3,30.27,East,85,3.0,4.0,28,0.00,,OVC100,0.00,VWS V12.08,2013-05-02 20:35:00,
2013-05-02 16:40:00,74.3,39.1,30.27,East,83,3.0,5.0,28,0.00,,OVC100,0.00,VWS V12.08,2013-05-02 20:40:00,
2013-05-02 16:45:00,74.5,39.3,30.27,East,93,1.0,1.0,28,0.00,,OVC100,0.00,VWS V12.08,2013-05-02 20:45:00,
2013-05-02 16:50:00,74.3,39.1,30.27,East,86,0.0,2.0,28,0.00,,OVC100,0.00,VWS V12.08,2013-05-02 20:50:00,
2013-05-02 16:55:00,74.1,39.0,30.27,East,95,5.0,6.0,28,0.00,,OVC100,0.00,VWS V12.08,2013-05-02 20:55:00,
2013-05-02 17:00:00,73.6,39.4,30.28,East,85,5.0,7.0,29,0.00,,OVC100,0.00,VWS V12.08,2013-05-02 21:00:00,
2013-05-02 17:05:00,73.3,39.2,30.28,ENE,75,5.0,8.0,29,0.00,,OVC100,0.00,VWS V12.08,2013-05-02 21:05:00,
2013-05-02 17:10:00,72.9,39.7,30.28,East,92,5.0,8.0,30,0.00,,OVC100,0.00,VWS V12.08,2013-05-02 21:10:00,
2013-05-02 17:15:00,72.7,38.6,30.28,ESE,121,0.0,2.0,29,0.00,,OVC100,0.00,VWS V12.08,2013-05-02 21:15:00,
2013-05-02 17:20:00,72.6,40.3,30.28,ENE,73,3.0,3.0,31,0.00,,OVC100,0.00,VWS V12.08,2013-05-02 21:20:00,
2013-05-02 17:25:00,72.6,39.4,30.28,ESE,121,0.0,1.0,30,0.00,,OVC100,0.00,VWS V12.08,2013-05-02 21:25:00,
2013-05-02 17:30:00,72.2,40.7,30.29,ENE,66,3.0,3.0,32,0.00,,OVC100,0.00,VWS V12.08,2013-05-02 21:30:00,
2013-05-02 17:35:00,71.9,40.5,30.29,East,88,1.0,5.0,32,0.00,,OVC100,0.00,VWS V12.08,2013-05-02 21:35:00,
2013-05-02 17:40:00,71.7,40.3,30.29,East,80,6.0,7.0,32,0.00,,OVC100,0.00,VWS V12.08,2013-05-02 21:40:00,
2013-05-02 17:45:00,71.3,40.7,30.29,NE,55,1.0,5.0,33,0.00,,OVC100,0.00,VWS V12.08,2013-05-02 21:45:00,
2013-05-02 17:50:00,71.2,39.0,30.29,ENE,61,3.0,8.0,31,0.00,,OVC100,0.00,VWS V12.08,2013-05-02 21:50:00,
2013-05-02 17:55:00,71.0,39.7,30.29,ENE,59,4.0,6.0,32,0.00,,OVC100,0.00,VWS V12.08,2013-05-02 21:55:00,
2013-05-02 18:00:00,70.8,40.3,30.30,NE,35,2.0,7.0,33,0.00,,OVC085,0.00,VWS V12.08,2013-05-02 22:00:00,
2013-05-02 18:05:00,70.7,39.4,30.30,ENE,64,4.0,9.0,32,0.00,,OVC085,0.00,VWS V12.08,2013-05-02 22:05:00,
2013-05-02 18:10:00,70.5,40.0,30.30,ENE,72,4.0,6.0,33,0.00,,OVC085,0.00,VWS V12.08,2013-05-02 22:10:00,
2013-05-02 18:15:00,70.3,41.4,30.30,ENE,59,0.0,1.0,35,0.00,,OVC085,0.00,VWS V12.08,2013-05-02 22:15:00,
2013-05-02 18:26:00,70.1,41.9,30.30,NE,48,3.0,4.0,36,0.00,,OVC085,0.00,VWS V12.08,2013-05-02 22:26:00,
2013-05-02 18:31:00,69.8,40.9,30.30,East,100,1.0,3.0,35,0.00,,OVC085,0.00,VWS V12.08,2013-05-02 22:31:00,
2013-05-02 18:36:00,69.6,41.5,30.30,ENE,61,2.0,4.0,36,0.00,,OVC085,0.00,VWS V12.08,2013-05-02 22:36:00,
2013-05-02 18:41:00,69.5,41.4,30.30,East,100,1.0,6.0,36,0.00,,OVC085,0.00,VWS V12.08,2013-05-02 22:41:00,
2013-05-02 18:46:00,69.3,41.2,30.32,ENE,71,1.0,1.0,36,0.00,,OVC085,0.00,VWS V12.08,2013-05-02 22:46:00,
2013-05-02 18:51:00,68.9,42.3,30.32,SW,222,3.0,4.0,38,0.00,,OVC085,0.00,VWS V12.08,2013-05-02 22:51:00,
2013-05-02 18:56:00,68.4,41.8,30.32,SW,226,5.0,5.0,38,0.00,,OVC085,0.00,VWS V12.08,2013-05-02 22:56:00,
2013-05-02 19:01:00,67.8,42.0,30.32,WSW,257,3.0,7.0,39,0.00,,BKN100,0.00,VWS V12.08,2013-05-02 23:01:00,
2013-05-02 19:06:00,67.1,41.3,30.32,SSW,203,8.0,12.0,39,0.00,,BKN100,0.00,VWS V12.08,2013-05-02 23:06:00,
2013-05-02 19:11:00,66.6,42.2,30.32,SW,223,0.0,3.0,41,0.00,,BKN100,0.00,VWS V12.08,2013-05-02 23:11:00,
2013-05-02 19:16:00,66.3,41.9,30.33,SSW,199,1.0,6.0,41,0.00,,BKN100,0.00,VWS V12.08,2013-05-02 23:16:00,
2013-05-02 19:21:00,65.8,41.5,30.33,West,268,3.0,8.0,41,0.00,,BKN100,0.00,VWS V12.08,2013-05-02 23:21:00,
2013-05-02 19:26:00,65.1,41.5,30.33,West,280,5.0,12.0,42,0.00,,BKN100,0.00,VWS V12.08,2013-05-02 23:26:00,
2013-05-02 19:31:00,64.6,41.6,30.33,SW,233,0.0,2.0,43,0.00,,BKN100,0.00,VWS V12.08,2013-05-02 23:31:00,
2013-05-02 19:36:00,64.1,41.2,30.33,SSW,212,2.0,2.0,43,0.00,,BKN100,0.00,VWS V12.08,2013-05-02 23:36:00,
2013-05-02 19:41:00,63.8,42.1,30.33,WNW,282,1.0,3.0,45,0.00,,BKN100,0.00,VWS V12.08,2013-05-02 23:41:00,
2013-05-02 19:47:00,63.5,41.2,30.34,WNW,284,1.0,3.0,44,0.00,,BKN100,0.00,VWS V12.08,2013-05-02 23:47:00,
2013-05-02 19:52:00,63.0,40.8,30.34,SW,215,4.0,7.0,44,0.00,,BKN100,0.00,VWS V12.08,2013-05-02 23:52:00,
2013-05-02 19:57:00,62.7,40.5,30.34,WNW,285,1.0,3.0,44,0.00,,BKN100,0.00,VWS V12.08,2013-05-02 23:57:00,
2013-05-02 20:02:00,62.5,40.9,30.36,WNW,285,1.0,8.0,45,0.00,,OVC095,0.00,VWS V12.08,2013-05-03 00:02:00,
2013-05-02 20:07:00,62.2,41.2,30.36,West,265,1.0,3.0,46,0.00,,OVC095,0.00,VWS V12.08,2013-05-03 00:07:00,
2013-05-02 20:12:00,61.7,41.3,30.36,WNW,295,2.0,6.0,47,0.00,,OVC095,0.00,VWS V12.08,2013-05-03 00:12:00,
2013-05-02 20:17:00,61.4,41.0,30.36,West,260,7.0,8.0,47,0.00,,OVC095,0.00,VWS V12.08,2013-05-03 00:17:00,
2013-05-02 20:22:00,60.9,40.0,30.36,WNW,289,2.0,8.0,46,0.00,,OVC095,0.00,VWS V12.08,2013-05-03 00:22:00,
2013-05-02 20:27:00,60.4,40.1,30.36,NNW,329,2.0,5.0,47,0.00,,OVC095,0.00,VWS V12.08,2013-05-03 00:27:00,
2013-05-02 20:32:00,60.1,40.4,30.37,NW,309,2.0,4.0,48,0.00,,OVC095,0.00,VWS V12.08,2013-05-03 00:32:00,
2013-05-02 20:37:00,59.6,39.9,30.37,NW,322,4.0,5.0,48,0.00,,OVC095,0.00,VWS V12.08,2013-05-03 00:37:00,
2013-05-02 20:42:00,59.3,40.2,30.37,SW,229,3.0,7.0,49,0.00,,OVC085,0.00,VWS V12.08,2013-05-03 00:42:00,
2013-05-02 20:47:00,59.2,40.1,30.38,WNW,298,5.0,11.0,49,0.00,,OVC085,0.00,VWS V12.08,2013-05-03 00:47:00,
2013-05-02 20:52:00,58.9,40.3,30.38,SSW,213,5.0,6.0,50,0.00,,OVC085,0.00,VWS V12.08,2013-05-03 00:52:00,
2013-05-02 20:57:00,58.5,39.9,30.38,NW,318,2.0,5.0,50,0.00,,OVC085,0.00,VWS V12.08,2013-05-03 00:57:00,
2013-05-02 21:02:00,58.4,40.9,30.38,WNW,285,2.0,5.0,52,0.00,,OVC085,0.00,VWS V12.08,2013-05-03 01:02:00,
2013-05-02 21:07:00,58.2,39.7,30.38,WNW,294,0.0,2.0,50,0.00,,OVC085,0.00,VWS V12.08,2013-05-03 01:07:00,
2013-05-02 21:12:00,58.1,40.1,30.38,NW,313,3.0,4.0,51,0.00,,OVC085,0.00,VWS V12.08,2013-05-03 01:12:00,
2013-05-02 21:17:00,57.9,39.9,30.39,NW,305,3.0,3.0,51,0.00,,OVC085,0.00,VWS V12.08,2013-05-03 01:17:00,
2013-05-02 21:22:00,57.5,40.0,30.39,NW,316,1.0,2.0,52,0.00,,OVC085,0.00,VWS V12.08,2013-05-03 01:22:00,
2013-05-02 21:27:00,57.3,39.8,30.39,WNW,291,2.0,3.0,52,0.00,,OVC085,0.00,VWS V12.08,2013-05-03 01:27:00,
2013-05-02 21:32:00,56.9,40.0,30.39,NW,311,2.0,3.0,53,0.00,,OVC085,0.00,VWS V12.08,2013-05-03 01:32:00,
2013-05-02 21:37:00,56.7,39.8,30.39,WNW,301,1.0,3.0,53,0.00,,OVC085,0.00,VWS V12.08,2013-05-03 01:37:00,
2013-05-02 21:42:00,56.4,39.5,30.39,NW,309,0.0,3.0,53,0.00,,OVC085,0.00,VWS V12.08,2013-05-03 01:42:00,
2013-05-02 21:47:00,56.3,39.4,30.39,NW,309,0.0,0.0,53,0.00,,OVC085,0.00,VWS V12.08,2013-05-03 01:47:00,
2013-05-02 21:52:00,56.1,39.2,30.39,NW,311,1.0,5.0,53,0.00,,OVC085,0.00,VWS V12.08,2013-05-03 01:52:00,
2013-05-02 21:57:00,56.0,39.1,30.39,NW,325,2.0,3.0,53,0.00,,OVC085,0.00,VWS V12.08,2013-05-03 01:57:00,
2013-05-02 22:02:00,55.6,38.8,30.40,NW,320,2.0,3.0,53,0.00,,OVC090,0.00,VWS V12.08,2013-05-03 02:02:00,
2013-05-02 22:07:00,55.3,39.0,30.40,West,265,5.0,6.0,54,0.00,,OVC090,0.00,VWS V12.08,2013-05-03 02:07:00,
2013-05-02 22:12:00,55.2,38.9,30.40,WNW,295,4.0,4.0,54,0.00,,OVC090,0.00,VWS V12.08,2013-05-03 02:12:00,
2013-05-02 22:17:00,54.9,38.6,30.41,WNW,301,2.0,2.0,54,0.00,,OVC090,0.00,VWS V12.08,2013-05-03 02:17:00,
2013-05-02 22:22:00,54.6,37.8,30.41,WSW,241,1.0,7.0,53,0.00,,OVC090,0.00,VWS V12.08,2013-05-03 02:22:00,
2013-05-02 22:27:00,54.5,37.2,30.41,West,280,0.0,1.0,52,0.00,,OVC090,0.00,VWS V12.08,2013-05-03 02:27:00,
2013-05-02 22:32:00,54.2,37.0,30.41,NW,308,0.0,3.0,52,0.00,,OVC090,0.00,VWS V12.08,2013-05-03 02:32:00,
2013-05-02 22:37:00,54.0,37.3,30.41,West,278,2.0,2.0,53,0.00,,OVC090,0.00,VWS V12.08,2013-05-03 02:37:00,
2013-05-02 22:42:00,53.9,36.7,30.41,WSW,241,3.0,3.0,52,0.00,,OVC090,0.00,VWS V12.08,2013-05-03 02:42:00,
2013-05-02 22:47:00,53.7,36.5,30.41,WSW,248,0.0,2.0,52,0.00,,OVC090,0.00,VWS V12.08,2013-05-03 02:47:00,
2013-05-02 22:52:00,53.6,36.9,30.41,WSW,244,0.0,1.0,53,0.00,,OVC090,0.00,VWS V12.08,2013-05-03 02:52:00,
2013-05-02 22:57:00,53.3,35.7,30.41,WNW,287,1.0,2.0,51,0.00,,OVC090,0.00,VWS V12.08,2013-05-03 02:57:00,
2013-05-02 23:02:00,53.0,35.4,30.42,NW,305,0.0,1.0,51,0.00,,BKN080,0.00,VWS V12.08,2013-05-03 03:02:00,
2013-05-02 23:07:00,52.7,34.6,30.42,West,275,0.0,3.0,50,0.00,,BKN080,0.00,VWS V12.08,2013-05-03 03:07:00,
2013-05-02 23:12:00,52.4,34.3,30.42,West,278,1.0,2.0,50,0.00,,BKN080,0.00,VWS V12.08,2013-05-03 03:12:00,
2013-05-02 23:17:00,52.2,34.6,30.42,WSW,241,3.0,4.0,51,0.00,,BKN080,0.00,VWS V12.08,2013-05-03 03:17:00,
2013-05-02 23:22:00,51.9,32.8,30.42,West,272,5.0,7.0,48,0.00,,BKN080,0.00,VWS V12.08,2013-05-03 03:22:00,
2013-05-02 23:27:00,51.8,33.3,30.42,WSW,251,0.0,2.0,49,0.00,,BKN080,0.00,VWS V12.08,2013-05-03 03:27:00,
2013-05-02 23:32:00,51.5,32.5,30.42,WSW,251,2.0,2.0,48,0.00,,BKN080,0.00,VWS V12.08,2013-05-03 03:32:00,
2013-05-02 23:37:00,51.3,32.3,30.42,WSW,251,0.0,0.0,48,0.00,,BKN080,0.00,VWS V12.08,2013-05-03 03:37:00,
2013-05-02 23:42:00,51.1,32.6,30.42,West,260,0.0,3.0,49,0.00,,BKN080,0.00,VWS V12.08,2013-05-03 03:42:00,
2013-05-02 23:47:00,50.8,32.3,30.42,West,260,0.0,2.0,49,0.00,,BKN080,0.00,VWS V12.08,2013-05-03 03:47:00,
2013-05-02 23:52:00,50.5,31.6,30.42,West,260,0.0,0.0,48,0.00,,BKN080,0.00,VWS V12.08,2013-05-03 03:52:00,
2013-05-02 23:57:00,50.2,31.8,30.42,West,260,0.0,0.0,49,0.00,,BKN080,0.00,VWS V12.08,2013-05-03 03:57:00,